Eyebrow, Canada
Current Conditions -  °F | °C
As of 8:00 AM on Thursday 30 Oct 2014 (Local Time) from CYMJ Reporting Station
Overcast Overcast  
Wind Chill: 26°   Ceiling: 1000
Heat Index: 32°   Visibility: 15mi
Dew Point: 28°   Wind: 7mph
Humidity: 87%   Direction: 20°NNE
Pressure: 30.38"   Gusts: NA
Location:  50.8°N, 106.15°W
Report Text: CYMJ 301400Z 02006KT 15SM OVC010 M00/M02 A3038 RMK SC8 SLP313
Loading
Personal Weather Stations






























Interactive Weather Map
Tropical Storm Tracking
New forecast layout! Learn more

10-Day Weather Forecast

Advertisements
Track Severe Weather on mobile